• Join FlightAware (Why Join?)
  • Login
  • US Flag 
05:31PM EDT


 

Airport Tracker/Info


-or-


 

Live Flight TrackerFlight Track Log ✈ RPA3228 ✈ 24-May-2013 ✈ KDCA - KBUF

Flight Track Log - Related Links

Times and Time Zones

All times are in EDT time to prevent confusion due to time zone crossing. See the RPA3228 flight status page for this flight to view local times or setup timezone preferences in your user account.

Time Position Orientation Groundspeed Altitude Reporting Facility
EDT Latitude Longitude Course Direction KTS MPH feet Rate Location/Type
12:05PM 39.0913 -77.1623 339° North  Level FlightAware Approximate
12:05PM 38.9667 -77.1500 322° Northwest 244 281 5,000  Level Potomac TRACON
12:06PM 39.1743 -77.2099 330° Northwest  Level FlightAware Approximate
12:07PM 39.2550 -77.2453 337° Northwest  Level FlightAware Approximate
12:07PM 39.0328 -77.2883 302° West 271 312 10,100  Level Washington Center
12:08PM 39.3337 -77.2890 337° Northwest  Level FlightAware Approximate
12:08PM 39.1114 -77.3358 335° Northwest 277 319 11,600  Level Washington Center
12:09PM 39.2111 -77.3594 350° North 330 380 14,300 2,460 Climbing Washington Center
12:10PM 39.3169 -77.3808 351° North 351 404 16,700 1,680 Climbing Washington Center
12:12PM 39.5889 -77.4444 350° North 417 480 20,000 960 Climbing New York Center
12:13PM 39.7117 -77.4856 346° North 444 511 20,000  Level New York Center
12:14PM 39.8344 -77.5272 345° North 449 517 20,000  Level New York Center
12:15PM 39.9553 -77.5686 345° North 449 517 20,000  Level New York Center
12:16PM 40.0758 -77.6103 345° North 449 517 20,000  Level New York Center
12:17PM 40.2086 -77.6558 345° North 449 517 20,000  Level New York Center
12:18PM 40.3189 -77.6969 344° North 449 517 20,000  Level New York Center
12:21PM 40.7242 -77.8406 345° North 433 498 20,000  Level Cleveland Center
12:22PM 40.8419 -77.8822 345° North 433 498 20,000  Level Cleveland Center
12:23PM 40.9575 -77.9217 346° North 432 497 20,000  Level Cleveland Center
12:24PM 41.0628 -77.9586 345° North 419 482 20,000  Level Cleveland Center
12:25PM 41.1783 -78.0036 344° North 419 482 20,000  Level Cleveland Center
12:26PM 41.2919 -78.0433 345° North 419 482 20,000  Level Cleveland Center
12:27PM 41.4075 -78.0858 345° North 419 482 20,000  Level Cleveland Center
12:28PM 41.5208 -78.1258 345° North 419 482 20,000 -180 Level Cleveland Center
12:29PM 41.6364 -78.1658 345° North 419 482 19,700 -780 Descending Cleveland Center
12:30PM 41.7458 -78.2064 345° North 413 475 18,500 -1,200 Descending Cleveland Center
12:31PM 41.8508 -78.2444 345° North 407 468 17,300 -1,140 Descending Cleveland Center
12:32PM 41.9536 -78.2825 345° North 388 447 16,300 -1,080 Descending Cleveland Center
12:33PM 42.0503 -78.3208 344° North 373 429 15,200 -1,080 Descending Cleveland Center
12:34PM 42.1469 -78.3539 346° North 362 417 14,200 -1,020 Descending Cleveland Center
12:35PM 42.2433 -78.3869 346° North 362 417 13,200 -1,020 Descending Cleveland Center
12:36PM 42.3336 -78.4233 343° North 351 404 12,200 -1,020 Descending Cleveland Center
12:37PM 42.4219 -78.4567 344° North 339 390 11,200 -600 Descending Cleveland Center
12:38PM 42.5017 -78.4850 345° North 320 368 11,000 -720 Descending Cleveland Center
12:39PM 42.5731 -78.5108 345° North 287 330 9,800 -1,740 Descending Cleveland Center
12:40PM 42.6183 -78.6025 304° West 257 296 7,600 -2,100 Descending Cleveland Center
12:41PM 42.6469 -78.6919 294° West 257 296 5,700 -1,740 Descending Cleveland Center
12:42PM 42.6775 -78.7758 296° West 257 296 4,200 -1,380 Descending Cleveland Center
12:43PM 42.7139 -78.8397 308° West 246 283 3,000 -660 Descending Cleveland Center
12:45PM 42.7833 -78.8833 335° Northwest 138 159 2,400 -360 Descending Buffalo TRACON